Overview Statistics Trail Chart Weather Telemetry Raw packets
 

This is the latest recevied weather packets stored in our database for station/object STV2-WX. If no packets are shown the sender has not sent any weather packets the latest 10 day(s).

<< 1 2 3 4 5 6 >>
Time Temp. Humidity Pressure Rain* Wind** Luminosity Snow
1788531429 23.89° C 49% 1012.5 hPa - - - -
1788527828 25.56° C 42% 1011.9 hPa - - - -
1788524228 27.22° C 35% 1011.3 hPa - - - -
1788520629 27.78° C 33% 1011.1 hPa - - - -
1788517029 28.33° C 34% 1011.5 hPa - - - -
1788513429 27.22° C 36% 1011.9 hPa - - - -
1788509829 26.67° C 37% 1012.2 hPa - - - -
1788506229 25° C 42% 1013.2 hPa - - - -
1788502629 23.33° C 49% 1013.6 hPa - - - -
1788499030 20.56° C 58% 1014 hPa - - - -
1788495429 18.33° C 65% 1013.7 hPa - - - -
1788491829 17.22° C 65% 1013.7 hPa - - - -
1788488229 17.22° C 63% 1013.5 hPa - - - -
1788484629 17.78° C 60% 1013.7 hPa - - - -
1788481029 18.33° C 56% 1013.5 hPa - - - -
1788477428 18.33° C 54% 1013.6 hPa - - - -
1788473829 19.44° C 51% 1013.8 hPa - - - -
1788470229 19.44° C 48% 1013.4 hPa - - - -
1788466629 20° C 45% 1013.8 hPa - - - -
1788463029 20.56° C 46% 1014.2 hPa - - - -
1788459430 20.56° C 57% 1014.5 hPa - - - -
1788452243 22.78° C 50% 1013.7 hPa - - - -
1788448671 25° C 35% 1013.2 hPa - - - -
1788441429 26.67° C 34% 1013.5 hPa - - - -
1788437829 27.22° C 35% 1013.7 hPa - - - -

* Rain since midnight (hover to see other rain measurements)
** Current wind speed in m/s (hover to see current wind gust speed)